createdAt,value
2023-02-23T00:00:21.114Z,8.40
2023-02-23T00:02:47.741Z,8.40
2023-02-23T00:05:14.333Z,8.40
2023-02-23T00:07:43.574Z,8.40
2023-02-23T00:10:11.921Z,8.50
2023-02-23T00:12:38.598Z,8.40
2023-02-23T00:15:05.297Z,8.40
2023-02-23T00:17:33.499Z,8.50
2023-02-23T00:20:00.120Z,8.50
2023-02-23T00:22:27.201Z,8.50
2023-02-23T00:24:53.989Z,8.50
2023-02-23T00:27:21.219Z,8.50
2023-02-23T00:29:49.498Z,8.50
2023-02-23T00:32:20.338Z,8.50
2023-02-23T00:34:50.398Z,8.50
2023-02-23T00:37:16.980Z,8.60
2023-02-23T00:39:43.718Z,8.60
2023-02-23T00:42:10.439Z,8.60
2023-02-23T00:44:40.473Z,8.60
2023-02-23T00:47:07.157Z,8.50
2023-02-23T00:49:36.033Z,8.50
2023-02-23T00:52:04.110Z,8.50
2023-02-23T00:54:30.698Z,8.60
2023-02-23T00:56:57.191Z,8.60
2023-02-23T00:59:53.323Z,8.60
2023-02-23T01:02:34.066Z,8.60
2023-02-23T01:05:15.738Z,8.60
2023-02-23T01:07:42.276Z,8.60
2023-02-23T01:10:21.311Z,8.60
2023-02-23T01:12:48.344Z,8.60
2023-02-23T01:15:14.829Z,8.60
2023-02-23T01:17:42.941Z,8.60
2023-02-23T01:20:17.799Z,8.60
2023-02-23T01:22:44.462Z,8.60
2023-02-23T01:25:24.334Z,8.60
2023-02-23T01:27:54.439Z,8.60
2023-02-23T01:30:20.916Z,8.60
2023-02-23T01:32:51.029Z,8.60
2023-02-23T01:35:25.742Z,8.60
2023-02-23T01:37:55.067Z,8.60
2023-02-23T01:40:36.999Z,8.60
2023-02-23T01:43:03.668Z,8.70
2023-02-23T01:45:34.519Z,8.70
2023-02-23T01:48:01.753Z,8.70
2023-02-23T01:50:28.243Z,8.60
2023-02-23T01:52:54.819Z,8.60
2023-02-23T01:55:24.183Z,8.60
2023-02-23T01:57:50.805Z,8.70
2023-02-23T02:00:20.072Z,8.60
2023-02-23T02:02:48.724Z,8.60
2023-02-23T02:05:15.262Z,8.60
2023-02-23T02:07:41.806Z,8.60
2023-02-23T02:10:11.355Z,8.60
2023-02-23T02:12:38.746Z,8.60
2023-02-23T02:15:05.420Z,8.60
2023-02-23T02:17:32.012Z,8.60
2023-02-23T02:19:58.574Z,8.60
2023-02-23T02:22:25.720Z,8.60
2023-02-23T02:24:52.379Z,8.60
2023-02-23T02:27:19.244Z,8.70
2023-02-23T02:29:45.919Z,8.60
2023-02-23T02:32:12.588Z,8.70
2023-02-23T02:34:39.161Z,8.60
2023-02-23T02:37:07.002Z,8.60
2023-02-23T02:39:36.943Z,8.60
2023-02-23T02:42:03.433Z,8.60
2023-02-23T02:44:30.077Z,8.60
2023-02-23T02:46:57.328Z,8.60
2023-02-23T02:49:23.950Z,8.60
2023-02-23T02:51:50.500Z,8.60
2023-02-23T02:54:17.038Z,8.60
2023-02-23T02:56:43.516Z,8.60
2023-02-23T02:59:28.952Z,8.60
2023-02-23T03:02:14.329Z,8.60
2023-02-23T03:05:14.076Z,8.50
2023-02-23T03:07:59.533Z,8.50
2023-02-23T03:10:44.870Z,8.50
2023-02-23T03:13:30.125Z,8.50
2023-02-23T03:16:15.446Z,8.50
2023-02-23T03:19:08.708Z,8.50
2023-02-23T03:21:54.085Z,8.40
2023-02-23T03:24:39.508Z,8.40
2023-02-23T03:27:24.762Z,8.40
2023-02-23T03:30:10.202Z,8.40
2023-02-23T03:32:55.480Z,8.40
2023-02-23T03:35:40.813Z,8.40
2023-02-23T03:38:35.386Z,8.40
2023-02-23T03:41:20.984Z,8.50
2023-02-23T03:44:06.504Z,8.50
2023-02-23T03:46:51.785Z,8.40
2023-02-23T03:49:37.041Z,8.40
2023-02-23T03:52:22.577Z,8.40
2023-02-23T03:55:07.995Z,8.40
2023-02-23T03:57:53.234Z,8.40
2023-02-23T04:00:38.466Z,8.40
2023-02-23T04:03:23.723Z,8.50
2023-02-23T04:06:11.186Z,8.50
2023-02-23T04:08:56.573Z,8.50
2023-02-23T04:11:42.284Z,8.40
2023-02-23T04:14:08.741Z,8.40
2023-02-23T04:16:35.203Z,8.40
2023-02-23T04:19:01.774Z,8.50
2023-02-23T04:21:28.277Z,8.50
2023-02-23T04:23:55.887Z,8.50
2023-02-23T04:26:22.423Z,8.40
2023-02-23T04:28:48.913Z,8.50
2023-02-23T04:31:19.072Z,8.50
2023-02-23T04:33:45.725Z,8.40
2023-02-23T04:36:12.188Z,8.50
2023-02-23T04:38:38.683Z,8.50
2023-02-23T04:41:05.146Z,8.50
2023-02-23T04:43:31.586Z,8.50
2023-02-23T04:45:58.100Z,8.50
2023-02-23T04:48:28.162Z,8.50
2023-02-23T04:50:54.748Z,8.50
2023-02-23T04:53:23.863Z,8.50
2023-02-23T04:55:50.529Z,8.50
2023-02-23T04:58:17.062Z,8.50
2023-02-23T05:00:43.861Z,8.50
2023-02-23T05:03:12.130Z,8.50
2023-02-23T05:05:38.627Z,8.50
2023-02-23T05:08:05.182Z,8.50
2023-02-23T05:10:31.675Z,8.40
2023-02-23T05:12:59.576Z,8.50
2023-02-23T05:15:26.144Z,8.50
2023-02-23T05:17:52.634Z,8.40
2023-02-23T05:20:19.191Z,8.40
2023-02-23T05:22:45.680Z,8.40
2023-02-23T05:25:12.150Z,8.40
2023-02-23T05:27:38.624Z,8.50
2023-02-23T05:30:05.073Z,8.50
2023-02-23T05:32:31.630Z,8.60
2023-02-23T05:34:58.156Z,8.60
2023-02-23T05:37:24.633Z,8.60
2023-02-23T05:39:51.139Z,8.60
2023-02-23T05:42:17.667Z,8.60
2023-02-23T05:44:44.277Z,8.60
2023-02-23T05:47:10.879Z,8.70
2023-02-23T05:49:37.446Z,8.70
2023-02-23T05:52:04.011Z,8.60
2023-02-23T05:54:30.521Z,8.60
2023-02-23T05:56:57.076Z,8.60
2023-02-23T05:59:23.644Z,8.50
2023-02-23T06:01:50.316Z,8.50
2023-02-23T06:04:17.282Z,8.50
2023-02-23T06:06:43.894Z,8.50
2023-02-23T06:09:10.467Z,8.50
2023-02-23T06:11:37.018Z,8.40
2023-02-23T06:14:03.542Z,8.50
2023-02-23T06:16:30.310Z,8.40
2023-02-23T06:18:56.927Z,8.40
2023-02-23T06:21:25.048Z,8.40
2023-02-23T06:23:52.339Z,8.40
2023-02-23T06:26:18.824Z,8.40
2023-02-23T06:28:45.350Z,8.40
2023-02-23T06:31:12.019Z,8.30
2023-02-23T06:33:38.659Z,8.40
2023-02-23T06:36:05.357Z,8.40
2023-02-23T06:38:31.901Z,8.30
2023-02-23T06:40:58.424Z,8.30
2023-02-23T06:43:24.962Z,8.40
2023-02-23T06:45:51.574Z,8.40
2023-02-23T06:48:18.089Z,8.30
2023-02-23T06:50:44.621Z,8.30
2023-02-23T06:53:11.153Z,8.30
2023-02-23T06:55:37.643Z,8.30
2023-02-23T06:58:04.906Z,8.30
2023-02-23T07:00:31.416Z,8.20
2023-02-23T07:02:59.747Z,8.20
2023-02-23T07:05:26.311Z,8.20
2023-02-23T07:07:52.822Z,8.20
2023-02-23T07:10:19.324Z,8.20
2023-02-23T07:12:45.883Z,8.20
2023-02-23T07:15:12.398Z,8.20
2023-02-23T07:17:38.932Z,8.20
2023-02-23T07:20:05.419Z,8.20
2023-02-23T07:22:34.039Z,8.20
2023-02-23T07:25:00.544Z,8.20
2023-02-23T07:27:27.496Z,8.10
2023-02-23T07:29:54.024Z,8.20
2023-02-23T07:32:20.637Z,8.10
2023-02-23T07:34:47.655Z,8.10
2023-02-23T07:37:14.186Z,8.10
2023-02-23T07:39:40.719Z,8.20
2023-02-23T07:42:07.218Z,8.20
2023-02-23T07:44:33.756Z,8.20
2023-02-23T07:47:00.234Z,8.20
2023-02-23T07:49:26.775Z,8.20
2023-02-23T07:51:53.362Z,8.20
2023-02-23T07:54:19.971Z,8.20
2023-02-23T07:56:46.464Z,8.20
2023-02-23T07:59:14.067Z,8.20
2023-02-23T08:01:40.590Z,8.20
2023-02-23T08:04:07.275Z,8.20
2023-02-23T08:06:33.874Z,8.20
2023-02-23T08:09:01.113Z,8.20
2023-02-23T08:11:29.032Z,8.10
2023-02-23T08:13:59.764Z,8.10
2023-02-23T08:16:26.361Z,8.10
2023-02-23T08:18:52.890Z,8.20
2023-02-23T08:21:19.652Z,8.10
2023-02-23T08:23:46.255Z,8.10
2023-02-23T08:26:12.747Z,8.10
2023-02-23T08:28:41.730Z,8.10
2023-02-23T08:31:08.407Z,8.10
2023-02-23T08:33:35.160Z,8.00
2023-02-23T08:36:02.728Z,8.00
2023-02-23T08:38:29.284Z,8.00
2023-02-23T08:40:55.796Z,8.00
2023-02-23T08:43:22.292Z,8.00
2023-02-23T08:45:48.799Z,8.00
2023-02-23T08:48:15.291Z,8.00
2023-02-23T08:50:41.798Z,8.00
2023-02-23T08:53:08.962Z,8.10
2023-02-23T08:55:35.575Z,8.00
2023-02-23T08:58:02.062Z,8.00
2023-02-23T09:00:28.574Z,8.00
2023-02-23T09:02:55.108Z,8.00
2023-02-23T09:05:21.689Z,8.00
2023-02-23T09:07:49.041Z,8.00
2023-02-23T09:10:15.605Z,7.90
2023-02-23T09:12:42.209Z,8.00
2023-02-23T09:15:08.720Z,8.00
2023-02-23T09:17:35.290Z,8.00
2023-02-23T09:20:02.127Z,7.90
2023-02-23T09:22:28.627Z,7.90
2023-02-23T09:24:55.108Z,7.90
2023-02-23T09:27:21.612Z,7.80
2023-02-23T09:29:48.160Z,7.90
2023-02-23T09:32:14.742Z,7.90
2023-02-23T09:34:41.339Z,8.00
2023-02-23T09:37:08.553Z,8.00
2023-02-23T09:39:38.624Z,8.10
2023-02-23T09:42:08.068Z,8.10
2023-02-23T09:44:34.556Z,8.10
2023-02-23T09:47:01.050Z,8.10
2023-02-23T09:49:27.540Z,8.20
2023-02-23T09:51:57.442Z,8.20
2023-02-23T09:54:24.234Z,8.20
2023-02-23T09:56:56.240Z,8.30
2023-02-23T10:04:39.942Z,8.50
2023-02-23T10:07:06.566Z,8.50
2023-02-23T10:09:33.056Z,8.60
2023-02-23T10:11:59.561Z,8.50
2023-02-23T10:14:26.055Z,8.60
2023-02-23T10:16:52.678Z,8.50
2023-02-23T10:19:19.179Z,8.60
2023-02-23T10:21:45.654Z,8.60
2023-02-23T10:24:12.518Z,8.60
2023-02-23T10:26:38.998Z,8.60
2023-02-23T10:29:05.461Z,8.60
2023-02-23T10:31:32.078Z,8.60
2023-02-23T10:33:58.771Z,8.50
2023-02-23T10:36:26.299Z,8.50
2023-02-23T10:38:52.869Z,8.40
2023-02-23T10:41:19.634Z,8.50
2023-02-23T10:43:46.372Z,8.40
2023-02-23T10:46:12.892Z,8.40
2023-02-23T10:48:45.549Z,8.40
2023-02-23T10:51:12.267Z,8.40
2023-02-23T10:53:39.891Z,8.40
2023-02-23T10:56:06.545Z,8.40
2023-02-23T10:58:33.074Z,8.30
2023-02-23T11:00:59.578Z,8.30
2023-02-23T11:03:26.406Z,8.20
2023-02-23T11:05:53.740Z,8.20
2023-02-23T11:08:20.290Z,8.20
2023-02-23T11:10:48.723Z,8.20
2023-02-23T11:13:15.211Z,8.20
2023-02-23T11:15:50.686Z,8.20
2023-02-23T11:18:17.587Z,8.20
2023-02-23T11:20:44.316Z,8.10
2023-02-23T11:23:14.758Z,8.00
2023-02-23T11:25:43.096Z,8.00
2023-02-23T11:28:09.567Z,8.00
2023-02-23T11:30:37.499Z,7.90
2023-02-23T11:33:10.508Z,7.90
2023-02-23T11:35:37.038Z,7.90
2023-02-23T11:38:05.447Z,7.90
2023-02-23T11:40:32.132Z,7.80
2023-02-23T11:43:01.141Z,7.90
2023-02-23T11:45:27.864Z,7.90
2023-02-23T11:47:54.380Z,7.90
2023-02-23T11:50:20.936Z,7.90
2023-02-23T11:52:47.598Z,7.90
2023-02-23T11:55:14.118Z,7.90
2023-02-23T11:57:41.637Z,7.90
2023-02-23T12:00:08.195Z,7.90
2023-02-23T12:02:35.172Z,7.90
2023-02-23T12:05:01.969Z,7.90
2023-02-23T12:07:29.532Z,7.90
2023-02-23T12:09:56.322Z,7.90
2023-02-23T12:12:22.839Z,7.80
2023-02-23T12:14:51.162Z,7.80
2023-02-23T12:17:17.724Z,7.80
2023-02-23T12:19:44.945Z,7.80
2023-02-23T12:22:12.199Z,7.80
2023-02-23T12:24:38.688Z,7.80
2023-02-23T12:27:06.221Z,7.90
2023-02-23T12:29:32.813Z,7.90
2023-02-23T12:32:02.737Z,7.80
2023-02-23T12:34:29.455Z,7.80
2023-02-23T12:36:55.959Z,7.80
2023-02-23T12:39:22.531Z,7.80
2023-02-23T12:41:49.393Z,7.80
2023-02-23T12:44:17.296Z,7.80
2023-02-23T12:46:47.369Z,7.80
2023-02-23T12:49:13.949Z,7.70
2023-02-23T12:51:40.441Z,7.70
2023-02-23T12:54:06.964Z,7.70
2023-02-23T12:56:33.467Z,7.60
2023-02-23T12:59:00.077Z,7.60
2023-02-23T13:01:26.966Z,7.50
2023-02-23T13:03:53.547Z,7.50
2023-02-23T13:06:20.506Z,7.50
2023-02-23T13:08:46.984Z,7.50
2023-02-23T13:11:13.524Z,7.50
2023-02-23T13:13:40.014Z,7.50
2023-02-23T13:16:06.515Z,7.50
2023-02-23T13:18:33.087Z,7.50
2023-02-23T13:20:59.655Z,7.50
2023-02-23T13:23:26.390Z,7.50
2023-02-23T13:25:54.071Z,7.50
2023-02-23T13:28:20.581Z,7.40
2023-02-23T13:30:47.657Z,7.30
2023-02-23T13:33:14.403Z,7.30
2023-02-23T13:35:42.236Z,7.20
2023-02-23T13:38:08.753Z,7.20
2023-02-23T13:40:35.291Z,7.20
2023-02-23T13:43:02.977Z,7.10
2023-02-23T13:45:29.456Z,7.00
2023-02-23T13:47:55.977Z,7.00
2023-02-23T13:50:22.680Z,7.00
2023-02-23T13:52:49.211Z,7.10
2023-02-23T13:55:15.708Z,7.20
2023-02-23T13:57:42.186Z,7.10
2023-02-23T14:00:08.773Z,7.10
2023-02-23T14:02:35.465Z,7.10
2023-02-23T14:05:02.041Z,7.10
2023-02-23T14:07:28.719Z,7.00
2023-02-23T14:09:55.195Z,7.10
2023-02-23T14:12:21.897Z,7.10
2023-02-23T14:14:48.470Z,7.00
2023-02-23T14:17:14.974Z,7.00
2023-02-23T14:19:41.486Z,7.00
2023-02-23T14:22:09.721Z,7.00
2023-02-23T14:24:36.235Z,7.00
2023-02-23T14:27:03.477Z,6.90
2023-02-23T14:29:31.775Z,6.80
2023-02-23T14:31:58.420Z,6.80
2023-02-23T14:34:24.965Z,6.70
2023-02-23T14:36:55.624Z,6.70
2023-02-23T14:39:22.106Z,6.80
2023-02-23T14:41:50.107Z,6.80
2023-02-23T14:44:28.207Z,6.80
2023-02-23T14:46:56.888Z,6.70
2023-02-23T14:49:23.403Z,6.80
2023-02-23T14:51:50.148Z,6.80
2023-02-23T14:54:16.626Z,6.80
2023-02-23T14:56:46.549Z,6.90
2023-02-23T14:59:13.182Z,6.90
2023-02-23T15:01:39.748Z,6.90
2023-02-23T15:04:06.258Z,6.90
2023-02-23T15:06:32.747Z,6.80
2023-02-23T15:08:59.233Z,6.90
2023-02-23T15:11:25.754Z,6.90
2023-02-23T15:13:52.269Z,6.80
2023-02-23T15:16:18.834Z,6.90
2023-02-23T15:19:04.387Z,6.90
2023-02-23T15:21:30.982Z,6.90
2023-02-23T15:23:57.693Z,6.80
2023-02-23T15:26:24.755Z,6.80
2023-02-23T15:28:51.324Z,6.80
2023-02-23T15:31:19.363Z,6.80
2023-02-23T15:33:48.571Z,6.80
2023-02-23T15:36:15.085Z,6.90
2023-02-23T15:38:43.934Z,6.90
2023-02-23T15:41:10.875Z,6.90
2023-02-23T15:43:37.361Z,6.90
2023-02-23T15:46:04.273Z,6.90
2023-02-23T15:48:30.836Z,6.80
2023-02-23T15:50:57.664Z,6.90
2023-02-23T15:53:24.264Z,6.80
2023-02-23T15:55:51.659Z,6.80
2023-02-23T15:58:18.211Z,6.90
2023-02-23T16:00:44.851Z,6.80
2023-02-23T16:03:11.425Z,6.80
2023-02-23T16:05:46.589Z,6.80
2023-02-23T16:08:13.755Z,6.80
2023-02-23T16:10:40.322Z,6.80
2023-02-23T16:13:06.813Z,6.80
2023-02-23T16:15:33.350Z,6.80
2023-02-23T16:17:59.865Z,6.80
2023-02-23T16:20:26.364Z,6.80
2023-02-23T16:22:54.693Z,6.70
2023-02-23T16:25:21.206Z,6.70
2023-02-23T16:27:47.847Z,6.60
2023-02-23T16:30:14.415Z,6.60
2023-02-23T16:32:41.198Z,6.60
2023-02-23T16:35:07.810Z,6.60
2023-02-23T16:37:34.291Z,6.60
2023-02-23T16:40:01.332Z,6.70
2023-02-23T16:42:27.904Z,6.70
2023-02-23T16:47:39.151Z,6.70
2023-02-23T16:50:18.896Z,6.70
2023-02-23T16:52:46.175Z,6.60
2023-02-23T16:55:14.682Z,6.60
2023-02-23T16:57:41.180Z,6.60
2023-02-23T17:00:15.353Z,6.50
2023-02-23T17:02:41.957Z,6.50
2023-02-23T17:05:08.465Z,6.50
2023-02-23T17:07:36.476Z,6.60
2023-02-23T17:10:03.055Z,6.50
2023-02-23T17:12:29.685Z,6.50
2023-02-23T17:14:56.175Z,6.50
2023-02-23T17:17:22.687Z,6.50
2023-02-23T17:19:49.228Z,6.50
2023-02-23T17:22:15.709Z,6.50
2023-02-23T17:24:42.218Z,6.60
2023-02-23T17:27:08.776Z,6.60
2023-02-23T17:29:35.244Z,6.60
2023-02-23T17:32:01.942Z,6.60
2023-02-23T17:34:28.645Z,6.60
2023-02-23T17:36:55.136Z,6.60
2023-02-23T17:39:21.616Z,6.60
2023-02-23T17:41:48.138Z,6.60
2023-02-23T17:44:14.617Z,6.60
2023-02-23T17:46:41.098Z,6.60
2023-02-23T17:49:07.658Z,6.60
2023-02-23T17:51:34.132Z,6.70
2023-02-23T17:54:00.642Z,6.70
2023-02-23T17:56:28.108Z,6.70
2023-02-23T17:58:54.611Z,6.70
2023-02-23T18:01:21.399Z,6.70
2023-02-23T18:03:49.168Z,6.70
2023-02-23T18:06:16.771Z,6.70
2023-02-23T18:08:43.700Z,6.70
2023-02-23T18:11:10.220Z,6.70
2023-02-23T18:13:36.770Z,6.70
2023-02-23T18:16:03.284Z,6.60
2023-02-23T18:18:29.822Z,6.70
2023-02-23T18:20:56.333Z,6.70
2023-02-23T18:23:22.961Z,6.70
2023-02-23T18:25:49.604Z,6.70
2023-02-23T18:28:16.198Z,6.70
2023-02-23T18:30:42.705Z,6.60
2023-02-23T18:33:09.453Z,6.60
2023-02-23T18:35:36.160Z,6.60
2023-02-23T18:38:02.819Z,6.60
2023-02-23T18:40:29.462Z,6.60
2023-02-23T18:42:55.986Z,6.60
2023-02-23T18:45:22.461Z,6.60
2023-02-23T18:47:49.072Z,6.60
2023-02-23T18:50:19.022Z,6.60
2023-02-23T18:52:46.265Z,6.60
2023-02-23T18:55:12.825Z,6.50
2023-02-23T18:57:39.312Z,6.50
2023-02-23T19:00:07.327Z,6.50
2023-02-23T19:02:33.901Z,6.40
2023-02-23T19:05:02.788Z,6.40
2023-02-23T19:07:30.496Z,6.30
2023-02-23T19:10:01.867Z,6.30
2023-02-23T19:12:28.401Z,6.30
2023-02-23T19:14:56.654Z,6.30
2023-02-23T19:17:24.279Z,6.40
2023-02-23T19:19:51.284Z,6.40
2023-02-23T19:22:17.752Z,6.30
2023-02-23T19:24:44.277Z,6.20
2023-02-23T19:27:10.821Z,6.20
2023-02-23T19:29:37.628Z,6.20
2023-02-23T19:32:04.419Z,6.20
2023-02-23T19:34:31.357Z,6.20
2023-02-23T19:36:57.946Z,6.20
2023-02-23T19:39:24.642Z,6.10
2023-02-23T19:41:51.127Z,6.10
2023-02-23T19:44:17.668Z,6.10
2023-02-23T19:46:44.153Z,6.10
2023-02-23T19:49:10.709Z,6.20
2023-02-23T19:51:37.219Z,6.20
2023-02-23T19:54:03.776Z,6.20
2023-02-23T19:56:30.322Z,6.20
2023-02-23T19:58:56.911Z,6.20
2023-02-23T20:01:23.616Z,6.20
2023-02-23T20:03:57.286Z,6.30
2023-02-23T20:06:23.830Z,6.30
2023-02-23T20:08:52.494Z,6.30
2023-02-23T20:11:19.424Z,6.40
2023-02-23T20:13:46.433Z,6.30
2023-02-23T20:16:13.089Z,6.30
2023-02-23T20:18:39.758Z,6.30
2023-02-23T20:21:06.262Z,6.30
2023-02-23T20:23:32.748Z,6.30
2023-02-23T20:25:59.220Z,6.40
2023-02-23T20:28:25.847Z,6.40
2023-02-23T20:30:52.506Z,6.40
2023-02-23T20:33:19.051Z,6.40
2023-02-23T20:35:45.524Z,6.40
2023-02-23T20:38:15.112Z,6.30
2023-02-23T20:40:41.660Z,6.30
2023-02-23T20:43:08.195Z,6.30
2023-02-23T20:45:34.662Z,6.40
2023-02-23T20:48:03.038Z,6.40
2023-02-23T20:50:33.906Z,6.40
2023-02-23T20:53:03.760Z,6.40
2023-02-23T20:55:30.278Z,6.40
2023-02-23T20:57:56.904Z,6.40
2023-02-23T21:00:24.149Z,6.40
2023-02-23T21:02:55.401Z,6.40
2023-02-23T21:05:22.181Z,6.40
2023-02-23T21:07:49.715Z,6.40
2023-02-23T21:10:16.238Z,6.50
2023-02-23T21:12:42.748Z,6.50
2023-02-23T21:15:09.404Z,6.50
2023-02-23T21:17:36.445Z,6.50
2023-02-23T21:20:05.554Z,6.50
2023-02-23T21:22:32.027Z,6.40
2023-02-23T21:25:00.622Z,6.40
2023-02-23T21:27:27.314Z,6.40
2023-02-23T21:29:55.168Z,6.40
2023-02-23T21:32:21.756Z,6.30
2023-02-23T21:34:48.339Z,6.30
2023-02-23T21:37:14.901Z,6.30
2023-02-23T21:39:41.494Z,6.40
2023-02-23T21:42:08.196Z,6.30
2023-02-23T21:44:34.742Z,6.30
2023-02-23T21:47:04.802Z,6.40
2023-02-23T21:49:31.344Z,6.30
2023-02-23T21:51:58.030Z,6.30
2023-02-23T21:54:24.620Z,6.20
2023-02-23T21:56:51.122Z,6.20
2023-02-23T21:59:17.620Z,6.20
2023-02-23T22:01:44.199Z,6.20
2023-02-23T22:04:10.701Z,6.20
2023-02-23T22:06:38.307Z,6.20
2023-02-23T22:09:05.654Z,6.20
2023-02-23T22:11:35.572Z,6.20
2023-02-23T22:14:02.184Z,6.10
2023-02-23T22:16:28.801Z,6.10
2023-02-23T22:18:55.493Z,6.10
2023-02-23T22:21:22.677Z,6.10
2023-02-23T22:23:50.132Z,6.10
2023-02-23T22:26:16.632Z,6.00
2023-02-23T22:28:43.128Z,6.00
2023-02-23T22:31:09.774Z,5.90
2023-02-23T22:33:36.349Z,5.90
2023-02-23T22:36:03.336Z,5.90
2023-02-23T22:38:30.637Z,5.90
2023-02-23T22:40:57.127Z,5.90
2023-02-23T22:43:23.647Z,5.90
2023-02-23T22:45:50.133Z,5.90
2023-02-23T22:48:16.641Z,5.90
2023-02-23T22:50:43.133Z,5.80
2023-02-23T22:53:09.646Z,5.70
2023-02-23T22:55:36.177Z,5.70
2023-02-23T22:58:08.362Z,5.60
2023-02-23T23:00:34.874Z,5.60
2023-02-23T23:03:05.520Z,5.60
2023-02-23T23:05:32.622Z,5.50
2023-02-23T23:07:59.325Z,5.50
2023-02-23T23:10:25.800Z,5.50
2023-02-23T23:12:52.357Z,5.50
2023-02-23T23:15:19.890Z,5.50
2023-02-23T23:17:48.563Z,5.50
2023-02-23T23:20:15.253Z,5.50
2023-02-23T23:22:41.773Z,5.50
2023-02-23T23:25:14.524Z,5.50
2023-02-23T23:27:41.335Z,5.50
2023-02-23T23:30:08.199Z,5.50
2023-02-23T23:32:34.853Z,5.40
2023-02-23T23:35:01.503Z,5.40
2023-02-23T23:37:29.015Z,5.40
2023-02-23T23:40:05.332Z,5.40
2023-02-23T23:42:31.883Z,5.30
2023-02-23T23:44:58.438Z,5.30
2023-02-23T23:47:25.894Z,5.30
2023-02-23T23:49:52.426Z,5.30
2023-02-23T23:52:19.010Z,5.20
2023-02-23T23:54:45.556Z,5.20
2023-02-23T23:57:12.400Z,5.20
2023-02-23T23:59:45.627Z,5.20
